Time Latitude Longitude Accuracy (66% radius in meters) Altitude (meters) Speed (km/hour) Bearing (degrees) Battery (%) GPS flag
06:49:24 57.204625 60.121916 18.203998565674 321 0 0 54 1 delete
06:49:14 57.204625 60.121916 15.170000076294 321 0 0 54 1 delete
06:49:03 57.204624 60.121913 13.65299987793 320 0 0 54 1 delete
06:48:53 57.204624 60.121913 15.170000076294 320 0 0 54 1 delete
06:48:42 57.204625 60.121914 13.65299987793 320 0 0 54 1 delete
06:48:32 57.204622 60.121910 13.65299987793 320 0 0 54 1 delete
06:48:22 57.204622 60.121903 15.170000076294 321 0 0 54 1 delete
06:48:11 57.204627 60.121880 15.170000076294 322 0 0 54 1 delete
06:48:01 57.204652 60.121853 13.65299987793 321 0 0 54 1 delete
06:47:51 57.204653 60.121851 15.170000076294 321 0 0 54 1 delete
06:47:40 57.204655 60.121843 13.65299987793 321 0 0 54 1 delete
06:47:29 57.204666 60.121820 15.170000076294 320 0 0 54 1 delete
06:47:19 57.204656 60.121818 15.170000076294 320 0 0 54 1 delete
06:47:08 57.204659 60.121836 25.788999557495 321 0 0 54 1 delete
06:46:57 57.204657 60.121838 19.720998764038 321 0 0 54 1 delete
06:46:47 57.204643 60.121826 16.687000274658 323 0.49000000953674 354.39999389648 54 1 delete
06:46:40 57.204640 60.121896 16.687000274658 323 0 0 54 1 delete
06:46:36 57.204710 60.121937 18.203998565674 326 0 0 54 1 delete
06:46:26 57.204710 60.121938 16.687000274658 326 0 0 54 1 delete
06:46:15 57.204710 60.121939 16.687000274658 326 0 0 54 1 delete
06:46:04 57.204710 60.121940 18.203998565674 326 0 0 54 1 delete
06:45:54 57.204711 60.121942 16.687000274658 326 0 0 54 1 delete
06:45:43 57.204711 60.121942 16.687000274658 326 0 0 54 1 delete
06:45:32 57.204711 60.121942 18.203998565674 326 0 0 54 1 delete
06:45:21 57.204711 60.121942 22.754999160767 326 0 0 54 1 delete
06:45:00 57.204711 60.121942 31.856998443604 326 0 0 54 1 delete
06:44:49 57.204711 60.121942 33.374000549316 326 0 0 54 1 delete
06:44:37 57.204711 60.121942 43.993000030518 326 0 0 54 1 delete
06:44:28 57.204711 60.121942 33.374000549316 326 0 0 54 1 delete
06:43:56 57.204711 60.121942 27.305999755859 326 0 0 54 1 delete
06:43:46 57.204711 60.121943 9.1019992828369 326 0 0 54 1 delete
06:43:36 57.204711 60.121942 6.0679998397827 326 0 0 54 1 delete
06:43:26 57.204708 60.121942 7.585000038147 326 0 0 54 1 delete
06:43:15 57.204724 60.121920 6.0679998397827 323 0 0 54 1 delete
06:43:04 57.204737 60.121907 15.170000076294 319 0 0 54 1 delete
06:42:54 57.204744 60.121902 15.170000076294 318 0 0 54 1 delete
06:42:44 57.204755 60.121909 16.687000274658 316 0 0 54 1 delete
06:42:34 57.204736 60.121939 18.203998565674 322 0 0 54 1 delete
06:42:30 57.204732 60.121959 16.687000274658 321 0 0 54 1 delete
06:42:26 57.204644 60.122036 21.237998962402 336 0 0 54 1 delete
06:42:23 57.204757 60.121950 25.788999557495 323 0 0 54 1 delete
06:42:22 57.204775 60.121926 27.305999755859 320 0.18999999761581 347.5 54 1 delete
06:42:21 57.204867 60.121841 28.822999954224 310 0.20000000298023 331.89999389648 54 1 delete
06:42:20 57.205009 60.121772 28.822999954224 294 0.27000001072884 344.70001220703 54 1 delete
06:42:19 57.205131 60.121707 31.856998443604 282 0.43000000715256 1.7000000476837 54 1 delete